createdAt,value
2019-05-12T00:00:01.174Z,42.2
2019-05-12T00:05:02.467Z,39
2019-05-12T00:10:01.155Z,41.2
2019-05-12T00:15:02.527Z,41.2
2019-05-12T00:20:01.168Z,41.7
2019-05-12T00:25:02.411Z,40.1
2019-05-12T00:30:01.154Z,41.2
2019-05-12T00:35:02.547Z,39.5
2019-05-12T00:40:01.492Z,41.2
2019-05-12T00:45:00.758Z,40.1
2019-05-12T00:50:01.827Z,41.2
2019-05-12T00:55:00.982Z,40.6
2019-05-12T01:00:02.439Z,41.2
2019-05-12T01:05:00.963Z,40.1
2019-05-12T01:10:04.727Z,41.7
2019-05-12T01:15:00.913Z,41.2
2019-05-12T01:20:02.564Z,39.5
2019-05-12T01:25:01.273Z,40.1
2019-05-12T01:30:02.737Z,42.2
2019-05-12T01:35:01.040Z,40.1
2019-05-12T01:40:02.071Z,40.1
2019-05-12T01:45:01.008Z,41.2
2019-05-12T01:50:02.424Z,41.2
2019-05-12T01:55:01.455Z,40.6
2019-05-12T02:00:00.915Z,40.1
2019-05-12T02:05:01.669Z,41.2
2019-05-12T02:10:00.882Z,40.1
2019-05-12T02:15:01.927Z,40.1
2019-05-12T02:20:01.066Z,40.6
2019-05-12T02:25:02.016Z,41.2
2019-05-12T02:30:01.280Z,40.1
2019-05-12T02:35:05.657Z,39
2019-05-12T02:40:04.428Z,41.2
2019-05-12T02:45:00.689Z,40.6
2019-05-12T02:50:04.937Z,41.2
2019-05-12T02:55:01.097Z,40.6
2019-05-12T03:00:04.575Z,40.1
2019-05-12T03:05:00.726Z,40.1
2019-05-12T03:10:04.490Z,40.6
2019-05-12T03:15:01.172Z,40.6
2019-05-12T03:20:04.886Z,39
2019-05-12T03:25:11.138Z,41.2
2019-05-12T03:30:06.145Z,40.1
2019-05-12T03:35:00.863Z,40.1
2019-05-12T03:40:05.007Z,41.2
2019-05-12T03:45:04.298Z,40.1
2019-05-12T03:50:04.473Z,40.6
2019-05-12T03:55:01.288Z,40.1
2019-05-12T04:00:00.707Z,40.1
2019-05-12T04:05:04.742Z,40.1
2019-05-12T04:10:01.094Z,40.1
2019-05-12T04:15:05.026Z,40.6
2019-05-12T04:20:04.305Z,40.6
2019-05-12T04:25:05.574Z,38.5
2019-05-12T04:30:01.329Z,40.1
2019-05-12T04:35:00.497Z,40.1
2019-05-12T04:40:04.985Z,40.1
2019-05-12T04:45:04.119Z,40.1
2019-05-12T04:50:05.088Z,39
2019-05-12T04:55:04.344Z,39
2019-05-12T05:00:05.041Z,39
2019-05-12T05:05:01.064Z,39
2019-05-12T05:10:04.622Z,38.5
2019-05-12T05:15:01.333Z,40.1
2019-05-12T05:20:00.601Z,40.1
2019-05-12T05:25:03.997Z,39
2019-05-12T05:30:00.768Z,40.1
2019-05-12T05:35:03.553Z,40.1
2019-05-12T05:40:03.708Z,39
2019-05-12T05:45:04.749Z,37.9
2019-05-12T05:50:01.141Z,39.5
2019-05-12T05:55:05.613Z,39.5
2019-05-12T06:00:01.154Z,40.1
2019-05-12T06:05:04.357Z,37.9
2019-05-12T06:10:01.288Z,40.1
2019-05-12T06:15:00.582Z,40.1
2019-05-12T06:20:01.529Z,40.1
2019-05-12T06:25:00.775Z,40.1
2019-05-12T06:30:05.903Z,40.1
2019-05-12T06:35:02.144Z,39.5
2019-05-12T06:40:03.538Z,40.1
2019-05-12T06:45:03.264Z,39
2019-05-12T06:50:00.676Z,40.1
2019-05-12T06:55:03.755Z,40.1
2019-05-12T07:00:04.497Z,37.9
2019-05-12T07:05:01.163Z,40.1
2019-05-12T07:10:07.819Z,39.5
2019-05-12T07:15:03.556Z,40.1
2019-05-12T07:20:00.786Z,40.1
2019-05-12T07:25:04.311Z,39.5
2019-05-12T07:30:00.969Z,40.1
2019-05-12T07:35:03.846Z,40.6
2019-05-12T07:40:01.278Z,40.1
2019-05-12T07:45:03.910Z,38.5
2019-05-12T07:50:00.948Z,40.1
2019-05-12T07:55:04.075Z,41.2
2019-05-12T08:00:03.055Z,40.6
2019-05-12T08:05:03.794Z,40.6
2019-05-12T08:10:07.050Z,41.2
2019-05-12T08:15:05.291Z,40.1
2019-05-12T08:20:01.443Z,41.2
2019-05-12T08:25:00.645Z,40.6
2019-05-12T08:30:03.786Z,41.2
2019-05-12T08:35:00.723Z,40.6
2019-05-12T08:40:03.840Z,41.2
2019-05-12T08:45:01.621Z,41.2
2019-05-12T08:50:04.765Z,41.7
2019-05-12T08:55:00.969Z,41.2
2019-05-12T09:00:04.064Z,42.2
2019-05-12T09:05:01.070Z,42.2
2019-05-12T09:10:00.625Z,41.7
2019-05-12T09:15:01.333Z,41.2
2019-05-12T09:20:03.447Z,42.2
2019-05-12T09:25:04.165Z,41.2
2019-05-12T09:30:05.269Z,42.2
2019-05-12T09:35:03.920Z,40.1
2019-05-12T09:40:01.565Z,42.2
2019-05-12T09:45:05.887Z,42.2
2019-05-12T09:50:04.311Z,42.2
2019-05-12T09:55:01.393Z,42.2
2019-05-12T10:00:00.785Z,42.8
2019-05-12T10:05:03.711Z,43.3
2019-05-12T10:10:03.139Z,41.7
2019-05-12T10:15:04.065Z,43.3
2019-05-12T10:20:01.160Z,42.2
2019-05-12T10:25:04.002Z,42.2
2019-05-12T10:30:03.096Z,42.8
2019-05-12T10:35:02.524Z,41.7
2019-05-12T10:40:03.522Z,43.3
2019-05-12T10:45:00.629Z,42.8
2019-05-12T10:50:01.668Z,43.3
2019-05-12T10:55:00.914Z,43.3
2019-05-12T11:00:04.101Z,43.3
2019-05-12T11:05:00.984Z,42.2
2019-05-12T11:10:11.690Z,44.4
2019-05-12T11:15:06.335Z,43.3
2019-05-12T11:20:00.740Z,43.3
2019-05-12T11:25:04.066Z,43.3
2019-05-12T11:30:00.849Z,44.4
2019-05-12T11:35:03.848Z,44.9
2019-05-12T11:40:04.156Z,44.4
2019-05-12T11:45:00.843Z,43.3
2019-05-12T11:50:04.817Z,42.8
2019-05-12T11:55:01.139Z,43.3
2019-05-12T12:00:05.284Z,43.3
2019-05-12T12:05:01.149Z,44.4
2019-05-12T12:10:03.672Z,43.3
2019-05-12T12:15:01.253Z,44.4
2019-05-12T12:20:00.814Z,45.5
2019-05-12T12:25:02.825Z,44.4
2019-05-12T12:30:13.570Z,44.9
2019-05-12T12:35:06.965Z,42.8
2019-05-12T12:40:04.057Z,45.5
2019-05-12T12:45:01.657Z,45.5
2019-05-12T12:50:04.008Z,43.3
2019-05-12T12:55:05.014Z,45.5
2019-05-12T13:00:03.767Z,46.5
2019-05-12T13:05:01.102Z,46.5
2019-05-12T13:10:08.057Z,45.5
2019-05-12T13:15:00.949Z,46.5
2019-05-12T13:20:02.318Z,46.5
2019-05-12T13:25:04.161Z,47.1
2019-05-12T13:30:05.215Z,47.6
2019-05-12T13:35:00.998Z,47.6
2019-05-12T13:40:01.867Z,47.6
2019-05-12T13:45:03.494Z,46.5
2019-05-12T13:50:03.998Z,47.6
2019-05-12T13:55:05.362Z,47.6
2019-05-12T14:00:08.586Z,48.2
2019-05-12T14:05:06.822Z,49.8
2019-05-12T14:10:00.553Z,49.8
2019-05-12T14:15:01.574Z,50.8
2019-05-12T14:20:01.018Z,51.9
2019-05-12T14:25:02.329Z,51.9
2019-05-12T14:30:09.290Z,51.9
2019-05-12T14:35:00.938Z,53
2019-05-12T14:40:03.942Z,53
2019-05-12T14:45:01.021Z,53
2019-05-12T14:50:00.649Z,54.1
2019-05-12T14:55:03.381Z,54.1
2019-05-12T15:00:00.849Z,55.1
2019-05-12T15:05:06.310Z,55.7
2019-05-12T15:10:03.482Z,55.7
2019-05-12T15:15:00.669Z,55.1
2019-05-12T15:20:06.409Z,55.1
2019-05-12T15:25:02.757Z,55.1
2019-05-12T15:30:03.977Z,54.1
2019-05-12T15:35:00.979Z,53
2019-05-12T15:40:04.242Z,51.9
2019-05-12T15:45:06.182Z,53.5
2019-05-12T15:50:00.712Z,53
2019-05-12T15:55:04.552Z,54.1
2019-05-12T16:00:01.103Z,54.1
2019-05-12T16:05:00.557Z,54.1
2019-05-12T16:10:03.977Z,54.1
2019-05-12T16:15:00.861Z,53
2019-05-12T16:20:03.626Z,53.5
2019-05-12T16:25:00.857Z,51.4
2019-05-12T16:30:04.409Z,51.4
2019-05-12T16:35:04.670Z,50.8
2019-05-12T16:40:04.427Z,49.8
2019-05-12T16:45:05.804Z,49.2
2019-05-12T16:50:06.078Z,50.8
2019-05-12T16:55:03.486Z,48.7
2019-05-12T17:00:03.079Z,47.6
2019-05-12T17:05:06.392Z,48.7
2019-05-12T17:10:11.479Z,48.7
2019-05-12T17:15:01.008Z,48.2
2019-05-12T17:20:04.400Z,46
2019-05-12T17:25:01.259Z,47.6
2019-05-12T17:30:04.375Z,47.6
2019-05-12T17:35:00.852Z,47.1
2019-05-12T17:40:03.672Z,44.9
2019-05-12T17:45:03.741Z,47.6
2019-05-12T17:50:06.410Z,46.5
2019-05-12T17:55:05.497Z,46.5
2019-05-12T18:00:06.014Z,47.1
2019-05-12T18:05:07.422Z,46
2019-05-12T18:10:00.842Z,47.1
2019-05-12T18:15:03.950Z,46.5
2019-05-12T18:20:01.171Z,45.5
2019-05-12T18:25:04.079Z,46.5
2019-05-12T18:30:00.949Z,45.5
2019-05-12T18:35:04.173Z,44.4
2019-05-12T18:40:01.111Z,46.5
2019-05-12T18:45:11.562Z,46
2019-05-12T18:50:01.084Z,45.5
2019-05-12T18:55:02.442Z,43.3
2019-05-12T19:00:04.757Z,45.5
2019-05-12T19:05:00.562Z,45.5
2019-05-12T19:10:03.582Z,45.5
2019-05-12T19:15:00.576Z,44.4
2019-05-12T19:20:01.708Z,44.9
2019-05-12T19:25:00.630Z,44.9
2019-05-12T19:30:01.662Z,45.5
2019-05-12T19:35:00.865Z,44.4
2019-05-12T19:40:03.866Z,44.4
2019-05-12T19:45:06.495Z,44.4
2019-05-12T19:50:06.694Z,44.9
2019-05-12T19:55:03.481Z,44.4
2019-05-12T20:00:04.482Z,43.3
2019-05-12T20:05:04.345Z,44.4
2019-05-12T20:10:04.609Z,42.8
2019-05-12T20:15:01.337Z,43.3
2019-05-12T20:20:00.634Z,43.3
2019-05-12T20:25:03.912Z,43.3
2019-05-12T20:30:00.852Z,44.4
2019-05-12T20:35:03.972Z,43.3
2019-05-12T20:40:02.662Z,44.4
2019-05-12T20:45:05.051Z,42.2
2019-05-12T20:50:01.114Z,44.4
2019-05-12T20:55:03.637Z,44.4
2019-05-12T21:00:04.600Z,44.4
2019-05-12T21:05:01.470Z,42.8
2019-05-12T21:10:03.834Z,43.3
2019-05-12T21:15:13.504Z,44.4
2019-05-12T21:20:04.213Z,43.3
2019-05-12T21:25:01.090Z,42.2
2019-05-12T21:30:09.466Z,42.2
2019-05-12T21:35:15.618Z,42.8
2019-05-12T21:40:00.969Z,42.2
2019-05-12T21:45:04.233Z,42.8
2019-05-12T21:50:03.356Z,42.8
2019-05-12T21:55:03.728Z,41.2
2019-05-12T22:00:01.168Z,42.8
2019-05-12T22:05:04.146Z,40.6
2019-05-12T22:10:01.497Z,42.8
2019-05-12T22:15:03.548Z,42.2
2019-05-12T22:20:06.067Z,42.8
2019-05-12T22:25:01.094Z,42.2
2019-05-12T22:30:04.239Z,42.2
2019-05-12T22:35:03.723Z,42.2
2019-05-12T22:40:06.017Z,42.2
2019-05-12T22:45:03.009Z,41.2
2019-05-12T22:50:00.853Z,42.2
2019-05-12T22:55:03.594Z,42.8
2019-05-12T23:00:00.962Z,42.2
2019-05-12T23:05:03.548Z,41.2
2019-05-12T23:10:06.791Z,42.2
2019-05-12T23:15:03.128Z,42.2
2019-05-12T23:20:01.335Z,40.1
2019-05-12T23:25:00.616Z,41.2
2019-05-12T23:30:10.010Z,41.2
2019-05-12T23:35:00.733Z,41.2
2019-05-12T23:40:04.147Z,40.1
2019-05-12T23:45:03.450Z,40.1
2019-05-12T23:50:03.977Z,40.6
2019-05-12T23:55:00.964Z,40.6
